sensor_id;sensor_type;location;lat;lon;timestamp;temperature;humidity
47576;DHT22;33304;52.456;13.328;2023-02-18T00:01:09;7.50;30.40
47576;DHT22;33304;52.456;13.328;2023-02-18T00:03:38;7.60;30.40
47576;DHT22;33304;52.456;13.328;2023-02-18T00:06:14;7.50;30.40
47576;DHT22;33304;52.456;13.328;2023-02-18T00:08:42;7.50;30.40
47576;DHT22;33304;52.456;13.328;2023-02-18T00:11:10;7.40;30.30
47576;DHT22;33304;52.456;13.328;2023-02-18T00:13:37;7.50;30.40
47576;DHT22;33304;52.456;13.328;2023-02-18T00:16:07;7.50;30.40
47576;DHT22;33304;52.456;13.328;2023-02-18T00:18:34;7.40;30.30
47576;DHT22;33304;52.456;13.328;2023-02-18T00:21:04;7.40;30.30
47576;DHT22;33304;52.456;13.328;2023-02-18T00:23:32;7.50;30.40
47576;DHT22;33304;52.456;13.328;2023-02-18T00:26:00;7.40;30.30
47576;DHT22;33304;52.456;13.328;2023-02-18T00:28:28;7.50;30.40
47576;DHT22;33304;52.456;13.328;2023-02-18T00:30:55;7.40;30.30
47576;DHT22;33304;52.456;13.328;2023-02-18T00:33:23;7.40;30.30
47576;DHT22;33304;52.456;13.328;2023-02-18T00:35:50;7.30;30.30
47576;DHT22;33304;52.456;13.328;2023-02-18T00:38:18;7.30;30.80
47576;DHT22;33304;52.456;13.328;2023-02-18T00:40:46;7.30;30.30
47576;DHT22;33304;52.456;13.328;2023-02-18T00:43:14;7.20;30.90
47576;DHT22;33304;52.456;13.328;2023-02-18T00:45:41;7.20;31.10
47576;DHT22;33304;52.456;13.328;2023-02-18T00:48:08;7.20;30.20
47576;DHT22;33304;52.456;13.328;2023-02-18T00:50:35;7.30;31.00
47576;DHT22;33304;52.456;13.328;2023-02-18T00:53:02;7.10;31.00
47576;DHT22;33304;52.456;13.328;2023-02-18T00:55:31;7.10;31.60
47576;DHT22;33304;52.456;13.328;2023-02-18T00:57:58;7.10;31.40
47576;DHT22;33304;52.456;13.328;2023-02-18T01:00:25;7.00;31.30
47576;DHT22;33304;52.456;13.328;2023-02-18T01:02:52;7.00;31.60
47576;DHT22;33304;52.456;13.328;2023-02-18T01:05:21;7.00;31.30
47576;DHT22;33304;52.456;13.328;2023-02-18T01:07:48;7.00;30.50
47576;DHT22;33304;52.456;13.328;2023-02-18T01:10:16;7.00;31.30
47576;DHT22;33304;52.456;13.328;2023-02-18T01:12:44;7.00;31.30
47576;DHT22;33304;52.456;13.328;2023-02-18T01:15:13;7.00;31.20
47576;DHT22;33304;52.456;13.328;2023-02-18T01:17:41;7.00;31.00
47576;DHT22;33304;52.456;13.328;2023-02-18T01:20:09;7.00;30.10
47576;DHT22;33304;52.456;13.328;2023-02-18T01:22:37;7.00;30.00
47576;DHT22;33304;52.456;13.328;2023-02-18T01:25:07;6.90;31.20
47576;DHT22;33304;52.456;13.328;2023-02-18T01:27:35;6.90;30.40
47576;DHT22;33304;52.456;13.328;2023-02-18T01:30:05;7.00;30.90
47576;DHT22;33304;52.456;13.328;2023-02-18T01:32:33;6.90;30.80
47576;DHT22;33304;52.456;13.328;2023-02-18T01:35:00;6.90;31.10
47576;DHT22;33304;52.456;13.328;2023-02-18T01:37:27;6.90;31.20
47576;DHT22;33304;52.456;13.328;2023-02-18T01:39:54;6.80;31.20
47576;DHT22;33304;52.456;13.328;2023-02-18T01:42:23;6.90;31.40
47576;DHT22;33304;52.456;13.328;2023-02-18T01:44:51;6.80;31.80
47576;DHT22;33304;52.456;13.328;2023-02-18T01:47:20;6.80;31.90
47576;DHT22;33304;52.456;13.328;2023-02-18T01:49:50;6.80;32.40
47576;DHT22;33304;52.456;13.328;2023-02-18T01:52:23;6.90;32.10
47576;DHT22;33304;52.456;13.328;2023-02-18T01:54:54;6.80;31.90
47576;DHT22;33304;52.456;13.328;2023-02-18T01:57:24;6.80;31.80
47576;DHT22;33304;52.456;13.328;2023-02-18T01:59:55;6.80;31.90
47576;DHT22;33304;52.456;13.328;2023-02-18T02:02:27;6.80;32.30
47576;DHT22;33304;52.456;13.328;2023-02-18T02:04:56;6.80;32.10
47576;DHT22;33304;52.456;13.328;2023-02-18T02:07:25;6.80;32.10
47576;DHT22;33304;52.456;13.328;2023-02-18T02:09:55;6.80;32.30
47576;DHT22;33304;52.456;13.328;2023-02-18T02:12:44;6.80;32.30
47576;DHT22;33304;52.456;13.328;2023-02-18T02:15:33;6.80;32.30
47576;DHT22;33304;52.456;13.328;2023-02-18T02:18:17;6.80;31.90
47576;DHT22;33304;52.456;13.328;2023-02-18T02:21:08;6.80;32.10
47576;DHT22;33304;52.456;13.328;2023-02-18T02:27:12;6.80;32.10
47576;DHT22;33304;52.456;13.328;2023-02-18T02:30:04;6.80;32.30
47576;DHT22;33304;52.456;13.328;2023-02-18T02:33:22;6.80;32.10
47576;DHT22;33304;52.456;13.328;2023-02-18T02:35:58;6.80;32.30
47576;DHT22;33304;52.456;13.328;2023-02-18T02:38:31;6.80;31.90
47576;DHT22;33304;52.456;13.328;2023-02-18T02:41:07;6.70;31.80
47576;DHT22;33304;52.456;13.328;2023-02-18T02:43:43;6.70;32.40
47576;DHT22;33304;52.456;13.328;2023-02-18T02:46:18;6.70;31.90
47576;DHT22;33304;52.456;13.328;2023-02-18T02:48:53;6.80;31.80
47576;DHT22;33304;52.456;13.328;2023-02-18T02:51:28;6.80;32.00
47576;DHT22;33304;52.456;13.328;2023-02-18T02:54:09;6.80;31.70
47576;DHT22;33304;52.456;13.328;2023-02-18T02:56:37;6.80;31.80
47576;DHT22;33304;52.456;13.328;2023-02-18T02:59:11;6.70;32.40
47576;DHT22;33304;52.456;13.328;2023-02-18T03:01:53;6.70;31.40
47576;DHT22;33304;52.456;13.328;2023-02-18T03:04:50;6.70;31.00
47576;DHT22;33304;52.456;13.328;2023-02-18T03:07:36;6.70;31.20
47576;DHT22;33304;52.456;13.328;2023-02-18T03:10:19;6.70;30.70
47576;DHT22;33304;52.456;13.328;2023-02-18T03:12:54;6.70;30.90
47576;DHT22;33304;52.456;13.328;2023-02-18T03:15:31;6.60;31.10
47576;DHT22;33304;52.456;13.328;2023-02-18T03:18:06;6.60;30.50
47576;DHT22;33304;52.456;13.328;2023-02-18T03:20:36;6.70;30.10
47576;DHT22;33304;52.456;13.328;2023-02-18T03:23:09;6.70;29.90
47576;DHT22;33304;52.456;13.328;2023-02-18T03:25:39;6.60;30.00
47576;DHT22;33304;52.456;13.328;2023-02-18T03:28:09;6.60;29.80
47576;DHT22;33304;52.456;13.328;2023-02-18T03:30:41;6.60;29.80
47576;DHT22;33304;52.456;13.328;2023-02-18T03:33:14;6.60;29.80
47576;DHT22;33304;52.456;13.328;2023-02-18T03:35:43;6.70;29.90
47576;DHT22;33304;52.456;13.328;2023-02-18T03:38:17;6.70;29.90
47576;DHT22;33304;52.456;13.328;2023-02-18T03:40:45;6.70;29.90
47576;DHT22;33304;52.456;13.328;2023-02-18T03:43:12;6.70;29.90
47576;DHT22;33304;52.456;13.328;2023-02-18T03:45:39;6.80;29.90
47576;DHT22;33304;52.456;13.328;2023-02-18T03:48:07;6.70;29.90
47576;DHT22;33304;52.456;13.328;2023-02-18T03:50:34;6.70;29.40
47576;DHT22;33304;52.456;13.328;2023-02-18T03:53:01;6.80;29.90
47576;DHT22;33304;52.456;13.328;2023-02-18T03:55:30;6.70;29.90
47576;DHT22;33304;52.456;13.328;2023-02-18T03:57:57;6.70;29.30
47576;DHT22;33304;52.456;13.328;2023-02-18T04:00:24;6.60;29.40
47576;DHT22;33304;52.456;13.328;2023-02-18T04:02:51;6.70;29.60
47576;DHT22;33304;52.456;13.328;2023-02-18T04:05:18;6.60;29.30
47576;DHT22;33304;52.456;13.328;2023-02-18T04:07:45;6.60;29.20
47576;DHT22;33304;52.456;13.328;2023-02-18T04:10:12;6.60;29.30
47576;DHT22;33304;52.456;13.328;2023-02-18T04:12:41;6.60;29.80
47576;DHT22;33304;52.456;13.328;2023-02-18T04:15:08;6.60;29.80
47576;DHT22;33304;52.456;13.328;2023-02-18T04:17:35;6.60;29.80
47576;DHT22;33304;52.456;13.328;2023-02-18T04:20:03;6.60;29.80
47576;DHT22;33304;52.456;13.328;2023-02-18T04:22:30;6.60;29.80
47576;DHT22;33304;52.456;13.328;2023-02-18T04:24:58;6.50;29.80
47576;DHT22;33304;52.456;13.328;2023-02-18T04:27:25;6.50;29.70
47576;DHT22;33304;52.456;13.328;2023-02-18T04:29:54;6.60;29.80
47576;DHT22;33304;52.456;13.328;2023-02-18T04:32:21;6.50;29.70
47576;DHT22;33304;52.456;13.328;2023-02-18T04:34:48;6.50;29.70
47576;DHT22;33304;52.456;13.328;2023-02-18T04:37:15;6.50;29.70
47576;DHT22;33304;52.456;13.328;2023-02-18T04:39:42;6.50;29.80
47576;DHT22;33304;52.456;13.328;2023-02-18T04:42:09;6.50;30.30
47576;DHT22;33304;52.456;13.328;2023-02-18T04:44:36;6.50;29.80
47576;DHT22;33304;52.456;13.328;2023-02-18T04:47:06;6.50;29.70
47576;DHT22;33304;52.456;13.328;2023-02-18T04:49:33;6.50;29.70
47576;DHT22;33304;52.456;13.328;2023-02-18T04:52:00;6.50;29.70
47576;DHT22;33304;52.456;13.328;2023-02-18T04:54:28;6.50;29.80
47576;DHT22;33304;52.456;13.328;2023-02-18T04:56:55;6.50;29.70
47576;DHT22;33304;52.456;13.328;2023-02-18T04:59:22;6.50;29.70
47576;DHT22;33304;52.456;13.328;2023-02-18T05:01:49;6.50;30.30
47576;DHT22;33304;52.456;13.328;2023-02-18T05:04:18;6.50;29.70
47576;DHT22;33304;52.456;13.328;2023-02-18T05:06:45;6.50;29.80
47576;DHT22;33304;52.456;13.328;2023-02-18T05:09:13;6.60;29.80
47576;DHT22;33304;52.456;13.328;2023-02-18T05:11:40;6.60;29.80
47576;DHT22;33304;52.456;13.328;2023-02-18T05:14:07;6.70;29.70
47576;DHT22;33304;52.456;13.328;2023-02-18T05:16:34;6.70;29.10
47576;DHT22;33304;52.456;13.328;2023-02-18T05:19:02;6.70;29.20
47576;DHT22;33304;52.456;13.328;2023-02-18T05:21:30;6.70;28.90
47576;DHT22;33304;52.456;13.328;2023-02-18T05:23:57;6.70;29.30
47576;DHT22;33304;52.456;13.328;2023-02-18T05:26:25;6.70;29.10
47576;DHT22;33304;52.456;13.328;2023-02-18T05:28:52;6.80;28.80
47576;DHT22;33304;52.456;13.328;2023-02-18T05:31:19;6.70;28.40
47576;DHT22;33304;52.456;13.328;2023-02-18T05:33:46;6.80;28.70
47576;DHT22;33304;52.456;13.328;2023-02-18T05:36:13;6.80;28.40
47576;DHT22;33304;52.456;13.328;2023-02-18T05:38:41;6.80;28.70
47576;DHT22;33304;52.456;13.328;2023-02-18T05:41:09;6.90;28.30
47576;DHT22;33304;52.456;13.328;2023-02-18T05:43:36;6.90;27.80
47576;DHT22;33304;52.456;13.328;2023-02-18T05:46:17;6.90;27.90
47576;DHT22;33304;52.456;13.328;2023-02-18T05:48:44;7.00;27.70
47576;DHT22;33304;52.456;13.328;2023-02-18T05:51:11;7.00;27.50
47576;DHT22;33304;52.456;13.328;2023-02-18T05:53:38;7.00;27.70
47576;DHT22;33304;52.456;13.328;2023-02-18T05:56:07;7.00;27.50
47576;DHT22;33304;52.456;13.328;2023-02-18T05:58:34;7.00;27.30
47576;DHT22;33304;52.456;13.328;2023-02-18T06:01:01;7.00;27.50
47576;DHT22;33304;52.456;13.328;2023-02-18T06:03:29;7.00;27.50
47576;DHT22;33304;52.456;13.328;2023-02-18T06:05:56;7.00;27.20
47576;DHT22;33304;52.456;13.328;2023-02-18T06:08:23;7.00;27.00
47576;DHT22;33304;52.456;13.328;2023-02-18T06:10:50;7.00;27.20
47576;DHT22;33304;52.456;13.328;2023-02-18T06:13:18;7.00;27.50
47576;DHT22;33304;52.456;13.328;2023-02-18T06:15:45;7.00;27.40
47576;DHT22;33304;52.456;13.328;2023-02-18T06:18:12;7.00;27.20
47576;DHT22;33304;52.456;13.328;2023-02-18T06:20:39;7.10;27.50
47576;DHT22;33304;52.456;13.328;2023-02-18T06:23:07;7.10;27.60
47576;DHT22;33304;52.456;13.328;2023-02-18T06:25:34;7.10;27.60
47576;DHT22;33304;52.456;13.328;2023-02-18T06:28:01;7.10;27.70
47576;DHT22;33304;52.456;13.328;2023-02-18T06:30:29;7.20;27.70
47576;DHT22;33304;52.456;13.328;2023-02-18T06:32:56;7.00;28.20
47576;DHT22;33304;52.456;13.328;2023-02-18T06:35:23;7.00;28.20
47576;DHT22;33304;52.456;13.328;2023-02-18T06:37:50;7.00;28.30
47576;DHT22;33304;52.456;13.328;2023-02-18T06:40:18;7.00;28.10
47576;DHT22;33304;52.456;13.328;2023-02-18T06:42:45;7.10;28.50
47576;DHT22;33304;52.456;13.328;2023-02-18T06:45:12;7.20;28.50
47576;DHT22;33304;52.456;13.328;2023-02-18T06:47:40;7.10;28.20
47576;DHT22;33304;52.456;13.328;2023-02-18T06:50:08;7.10;28.00
47576;DHT22;33304;52.456;13.328;2023-02-18T06:52:35;7.10;27.90
47576;DHT22;33304;52.456;13.328;2023-02-18T06:55:03;7.20;27.50
47576;DHT22;33304;52.456;13.328;2023-02-18T06:57:30;7.20;27.70
47576;DHT22;33304;52.456;13.328;2023-02-18T06:59:57;7.20;27.20
47576;DHT22;33304;52.456;13.328;2023-02-18T07:02:24;7.20;27.60
47576;DHT22;33304;52.456;13.328;2023-02-18T07:04:53;7.20;27.50
47576;DHT22;33304;52.456;13.328;2023-02-18T07:07:20;7.30;27.30
47576;DHT22;33304;52.456;13.328;2023-02-18T07:09:47;7.30;27.60
47576;DHT22;33304;52.456;13.328;2023-02-18T07:12:15;7.30;27.10
47576;DHT22;33304;52.456;13.328;2023-02-18T07:14:42;7.30;27.60
47576;DHT22;33304;52.456;13.328;2023-02-18T07:17:09;7.40;26.80
47576;DHT22;33304;52.456;13.328;2023-02-18T07:19:36;7.40;27.20
47576;DHT22;33304;52.456;13.328;2023-02-18T07:22:04;7.40;27.60
47576;DHT22;33304;52.456;13.328;2023-02-18T07:24:31;7.30;28.60
47576;DHT22;33304;52.456;13.328;2023-02-18T07:26:58;7.30;28.70
47576;DHT22;33304;52.456;13.328;2023-02-18T07:29:25;7.30;28.80
47576;DHT22;33304;52.456;13.328;2023-02-18T07:31:52;7.30;29.90
47576;DHT22;33304;52.456;13.328;2023-02-18T07:34:20;7.20;30.10
47576;DHT22;33304;52.456;13.328;2023-02-18T07:36:47;7.30;30.30
47576;DHT22;33304;52.456;13.328;2023-02-18T07:39:15;7.20;30.20
47576;DHT22;33304;52.456;13.328;2023-02-18T07:41:46;7.20;30.20
47576;DHT22;33304;52.456;13.328;2023-02-18T07:44:15;7.20;31.70
47576;DHT22;33304;52.456;13.328;2023-02-18T07:46:42;7.10;32.20
47576;DHT22;33304;52.456;13.328;2023-02-18T07:49:09;7.10;32.40
47576;DHT22;33304;52.456;13.328;2023-02-18T07:51:36;7.10;33.10
47576;DHT22;33304;52.456;13.328;2023-02-18T07:54:05;7.10;33.40
47576;DHT22;33304;52.456;13.328;2023-02-18T07:56:34;7.00;35.00
47576;DHT22;33304;52.456;13.328;2023-02-18T07:59:02;7.00;36.20
47576;DHT22;33304;52.456;13.328;2023-02-18T08:01:29;7.00;36.40
47576;DHT22;33304;52.456;13.328;2023-02-18T08:03:56;7.00;37.50
47576;DHT22;33304;52.456;13.328;2023-02-18T08:06:25;7.00;38.10
47576;DHT22;33304;52.456;13.328;2023-02-18T08:08:54;7.00;37.40
47576;DHT22;33304;52.456;13.328;2023-02-18T08:11:21;7.00;38.70
47576;DHT22;33304;52.456;13.328;2023-02-18T08:13:50;6.90;39.60
47576;DHT22;33304;52.456;13.328;2023-02-18T08:16:19;7.00;39.90
47576;DHT22;33304;52.456;13.328;2023-02-18T08:18:47;6.90;40.00
47576;DHT22;33304;52.456;13.328;2023-02-18T08:21:16;7.00;40.40
47576;DHT22;33304;52.456;13.328;2023-02-18T08:23:43;6.90;41.30
47576;DHT22;33304;52.456;13.328;2023-02-18T08:26:11;6.90;41.50
47576;DHT22;33304;52.456;13.328;2023-02-18T08:28:41;6.90;41.50
47576;DHT22;33304;52.456;13.328;2023-02-18T08:31:15;6.90;41.50
47576;DHT22;33304;52.456;13.328;2023-02-18T08:33:42;6.80;44.60
47576;DHT22;33304;52.456;13.328;2023-02-18T08:36:09;6.80;45.30
47576;DHT22;33304;52.456;13.328;2023-02-18T08:38:36;6.70;46.70
47576;DHT22;33304;52.456;13.328;2023-02-18T08:41:07;6.60;47.90
47576;DHT22;33304;52.456;13.328;2023-02-18T08:43:35;6.70;49.80
47576;DHT22;33304;52.456;13.328;2023-02-18T08:46:03;6.70;51.50
47576;DHT22;33304;52.456;13.328;2023-02-18T08:48:32;6.60;52.00
47576;DHT22;33304;52.456;13.328;2023-02-18T08:50:59;6.60;52.50
47576;DHT22;33304;52.456;13.328;2023-02-18T08:53:26;6.70;53.40
47576;DHT22;33304;52.456;13.328;2023-02-18T08:55:53;6.50;54.00
47576;DHT22;33304;52.456;13.328;2023-02-18T08:58:20;6.40;56.70
47576;DHT22;33304;52.456;13.328;2023-02-18T09:00:47;6.50;58.40
47576;DHT22;33304;52.456;13.328;2023-02-18T09:03:15;6.40;60.90
47576;DHT22;33304;52.456;13.328;2023-02-18T09:05:43;6.60;63.40
47576;DHT22;33304;52.456;13.328;2023-02-18T09:08:10;6.60;63.40
47576;DHT22;33304;52.456;13.328;2023-02-18T09:10:37;6.60;63.40
47576;DHT22;33304;52.456;13.328;2023-02-18T09:13:05;6.40;63.00
47576;DHT22;33304;52.456;13.328;2023-02-18T09:15:32;6.20;64.40
47576;DHT22;33304;52.456;13.328;2023-02-18T09:17:59;6.20;69.30
47576;DHT22;33304;52.456;13.328;2023-02-18T09:20:26;6.20;73.50
47576;DHT22;33304;52.456;13.328;2023-02-18T09:22:55;6.20;77.50
47576;DHT22;33304;52.456;13.328;2023-02-18T09:25:23;6.20;78.30
47576;DHT22;33304;52.456;13.328;2023-02-18T09:27:50;6.40;79.10
47576;DHT22;33304;52.456;13.328;2023-02-18T09:30:17;6.30;79.10
47576;DHT22;33304;52.456;13.328;2023-02-18T09:32:44;6.30;79.70
47576;DHT22;33304;52.456;13.328;2023-02-18T09:35:11;6.30;81.00
47576;DHT22;33304;52.456;13.328;2023-02-18T09:37:38;6.40;81.40
47576;DHT22;33304;52.456;13.328;2023-02-18T09:40:21;6.30;81.20
47576;DHT22;33304;52.456;13.328;2023-02-18T09:42:50;6.30;87.00
47576;DHT22;33304;52.456;13.328;2023-02-18T09:45:17;6.30;88.70
47576;DHT22;33304;52.456;13.328;2023-02-18T09:47:44;6.20;90.20
47576;DHT22;33304;52.456;13.328;2023-02-18T09:50:17;6.30;96.20
47576;DHT22;33304;52.456;13.328;2023-02-18T09:52:45;6.40;99.20
47576;DHT22;33304;52.456;13.328;2023-02-18T09:55:19;6.40;99.40
47576;DHT22;33304;52.456;13.328;2023-02-18T09:57:49;6.40;99.90
47576;DHT22;33304;52.456;13.328;2023-02-18T10:00:21;6.40;99.90
47576;DHT22;33304;52.456;13.328;2023-02-18T10:02:55;6.30;99.90
47576;DHT22;33304;52.456;13.328;2023-02-18T10:05:24;6.40;99.90
47576;DHT22;33304;52.456;13.328;2023-02-18T10:07:54;6.40;99.90
47576;DHT22;33304;52.456;13.328;2023-02-18T10:10:31;6.30;99.90
47576;DHT22;33304;52.456;13.328;2023-02-18T10:13:00;6.30;99.90
47576;DHT22;33304;52.456;13.328;2023-02-18T10:15:31;6.50;99.90
47576;DHT22;33304;52.456;13.328;2023-02-18T10:17:58;6.60;99.90
47576;DHT22;33304;52.456;13.328;2023-02-18T10:20:28;6.50;99.90
47576;DHT22;33304;52.456;13.328;2023-02-18T10:22:59;6.60;99.90
47576;DHT22;33304;52.456;13.328;2023-02-18T10:25:28;6.50;99.90
47576;DHT22;33304;52.456;13.328;2023-02-18T10:27:56;6.50;99.90
47576;DHT22;33304;52.456;13.328;2023-02-18T10:30:30;6.50;99.90
47576;DHT22;33304;52.456;13.328;2023-02-18T10:33:06;6.50;99.90
47576;DHT22;33304;52.456;13.328;2023-02-18T10:35:42;6.60;99.90
47576;DHT22;33304;52.456;13.328;2023-02-18T10:38:17;6.60;99.90
47576;DHT22;33304;52.456;13.328;2023-02-18T10:40:54;6.50;99.90
47576;DHT22;33304;52.456;13.328;2023-02-18T10:43:30;6.50;99.90
47576;DHT22;33304;52.456;13.328;2023-02-18T10:46:03;6.90;99.90
47576;DHT22;33304;52.456;13.328;2023-02-18T10:48:45;6.80;99.90
47576;DHT22;33304;52.456;13.328;2023-02-18T10:51:19;6.70;99.90
47576;DHT22;33304;52.456;13.328;2023-02-18T10:53:49;6.80;99.90
47576;DHT22;33304;52.456;13.328;2023-02-18T10:56:37;6.60;99.90
47576;DHT22;33304;52.456;13.328;2023-02-18T10:59:11;6.60;99.90
47576;DHT22;33304;52.456;13.328;2023-02-18T11:01:39;6.70;99.90
47576;DHT22;33304;52.456;13.328;2023-02-18T11:04:12;6.70;99.90
47576;DHT22;33304;52.456;13.328;2023-02-18T11:06:42;6.80;99.90
47576;DHT22;33304;52.456;13.328;2023-02-18T11:09:30;6.80;99.90
47576;DHT22;33304;52.456;13.328;2023-02-18T11:12:06;6.80;99.90
47576;DHT22;33304;52.456;13.328;2023-02-18T11:14:41;6.70;99.90
47576;DHT22;33304;52.456;13.328;2023-02-18T11:17:16;6.60;99.90
47576;DHT22;33304;52.456;13.328;2023-02-18T11:19:51;6.80;99.90
47576;DHT22;33304;52.456;13.328;2023-02-18T11:22:20;6.80;99.90
47576;DHT22;33304;52.456;13.328;2023-02-18T11:24:52;6.70;99.90
47576;DHT22;33304;52.456;13.328;2023-02-18T11:27:27;6.60;99.90
47576;DHT22;33304;52.456;13.328;2023-02-18T11:29:59;6.60;99.90
47576;DHT22;33304;52.456;13.328;2023-02-18T11:32:29;6.60;99.90
47576;DHT22;33304;52.456;13.328;2023-02-18T11:34:57;6.70;99.90
47576;DHT22;33304;52.456;13.328;2023-02-18T11:37:24;6.70;99.90
47576;DHT22;33304;52.456;13.328;2023-02-18T11:39:53;6.80;99.90
47576;DHT22;33304;52.456;13.328;2023-02-18T11:42:25;7.00;99.90
47576;DHT22;33304;52.456;13.328;2023-02-18T11:44:53;6.90;99.90
47576;DHT22;33304;52.456;13.328;2023-02-18T11:47:25;6.90;99.90
47576;DHT22;33304;52.456;13.328;2023-02-18T11:50:01;7.00;99.90
47576;DHT22;33304;52.456;13.328;2023-02-18T11:52:33;7.10;99.90
47576;DHT22;33304;52.456;13.328;2023-02-18T11:55:03;7.10;99.90
47576;DHT22;33304;52.456;13.328;2023-02-18T11:57:34;7.20;99.90
47576;DHT22;33304;52.456;13.328;2023-02-18T12:00:03;7.20;99.90
47576;DHT22;33304;52.456;13.328;2023-02-18T12:02:36;7.20;99.90
47576;DHT22;33304;52.456;13.328;2023-02-18T12:05:11;7.30;99.90
47576;DHT22;33304;52.456;13.328;2023-02-18T12:07:43;7.30;99.90
47576;DHT22;33304;52.456;13.328;2023-02-18T12:10:14;7.40;99.90
47576;DHT22;33304;52.456;13.328;2023-02-18T12:12:49;7.50;99.90
47576;DHT22;33304;52.456;13.328;2023-02-18T12:15:21;7.50;99.90
47576;DHT22;33304;52.456;13.328;2023-02-18T12:18:01;7.70;99.90
47576;DHT22;33304;52.456;13.328;2023-02-18T12:20:48;7.70;99.90
47576;DHT22;33304;52.456;13.328;2023-02-18T12:23:25;7.80;99.90
47576;DHT22;33304;52.456;13.328;2023-02-18T12:26:04;8.00;99.90
47576;DHT22;33304;52.456;13.328;2023-02-18T12:28:44;8.10;99.90
47576;DHT22;33304;52.456;13.328;2023-02-18T12:31:27;8.20;99.90
47576;DHT22;33304;52.456;13.328;2023-02-18T12:34:14;8.30;99.90
47576;DHT22;33304;52.456;13.328;2023-02-18T12:36:57;8.40;99.90
47576;DHT22;33304;52.456;13.328;2023-02-18T12:39:41;8.60;99.90
47576;DHT22;33304;52.456;13.328;2023-02-18T12:42:35;8.70;99.90
47576;DHT22;33304;52.456;13.328;2023-02-18T12:45:25;8.90;99.90
47576;DHT22;33304;52.456;13.328;2023-02-18T12:48:14;9.10;99.90
47576;DHT22;33304;52.456;13.328;2023-02-18T12:50:52;9.20;99.90
47576;DHT22;33304;52.456;13.328;2023-02-18T12:53:43;9.40;99.90
47576;DHT22;33304;52.456;13.328;2023-02-18T13:02:23;9.80;99.90
47576;DHT22;33304;52.456;13.328;2023-02-18T13:05:03;9.80;99.90
47576;DHT22;33304;52.456;13.328;2023-02-18T13:07:49;10.00;99.90
47576;DHT22;33304;52.456;13.328;2023-02-18T13:10:33;10.00;99.90
47576;DHT22;33304;52.456;13.328;2023-02-18T13:13:09;10.10;99.90
47576;DHT22;33304;52.456;13.328;2023-02-18T13:15:39;10.20;99.90
47576;DHT22;33304;52.456;13.328;2023-02-18T13:18:15;10.20;99.90
47576;DHT22;33304;52.456;13.328;2023-02-18T13:20:47;10.20;99.90
47576;DHT22;33304;52.456;13.328;2023-02-18T13:23:20;10.20;99.90
47576;DHT22;33304;52.456;13.328;2023-02-18T13:25:51;10.30;99.90
47576;DHT22;33304;52.456;13.328;2023-02-18T13:28:25;10.30;99.90
47576;DHT22;33304;52.456;13.328;2023-02-18T13:31:04;10.30;99.90
47576;DHT22;33304;52.456;13.328;2023-02-18T13:33:43;10.30;99.90
47576;DHT22;33304;52.456;13.328;2023-02-18T13:36:24;10.30;99.90
47576;DHT22;33304;52.456;13.328;2023-02-18T13:38:59;10.40;99.90
47576;DHT22;33304;52.456;13.328;2023-02-18T13:41:34;10.40;99.90
47576;DHT22;33304;52.456;13.328;2023-02-18T13:44:07;10.30;99.90
47576;DHT22;33304;52.456;13.328;2023-02-18T13:46:47;10.30;99.90
47576;DHT22;33304;52.456;13.328;2023-02-18T13:49:17;10.30;99.90
47576;DHT22;33304;52.456;13.328;2023-02-18T13:51:47;10.30;99.90
47576;DHT22;33304;52.456;13.328;2023-02-18T13:54:20;10.30;99.90
47576;DHT22;33304;52.456;13.328;2023-02-18T13:56:50;10.30;99.90
47576;DHT22;33304;52.456;13.328;2023-02-18T13:59:22;10.30;99.90
47576;DHT22;33304;52.456;13.328;2023-02-18T14:01:51;10.20;99.90
47576;DHT22;33304;52.456;13.328;2023-02-18T14:07:32;10.20;99.90
47576;DHT22;33304;52.456;13.328;2023-02-18T14:10:19;10.20;99.90
47576;DHT22;33304;52.456;13.328;2023-02-18T14:13:02;10.20;99.90
47576;DHT22;33304;52.456;13.328;2023-02-18T14:15:55;10.20;99.90
47576;DHT22;33304;52.456;13.328;2023-02-18T14:18:31;10.20;99.90
47576;DHT22;33304;52.456;13.328;2023-02-18T14:21:21;10.20;99.90
47576;DHT22;33304;52.456;13.328;2023-02-18T14:24:03;10.20;99.90
47576;DHT22;33304;52.456;13.328;2023-02-18T14:26:38;10.20;99.90
47576;DHT22;33304;52.456;13.328;2023-02-18T14:29:16;10.20;99.90
47576;DHT22;33304;52.456;13.328;2023-02-18T14:31:47;10.20;99.90
47576;DHT22;33304;52.456;13.328;2023-02-18T14:34:33;10.20;99.90
47576;DHT22;33304;52.456;13.328;2023-02-18T14:37:12;10.20;99.90
47576;DHT22;33304;52.456;13.328;2023-02-18T14:39:56;10.20;99.90
47576;DHT22;33304;52.456;13.328;2023-02-18T14:42:33;10.20;99.90
47576;DHT22;33304;52.456;13.328;2023-02-18T14:45:21;10.20;99.90
47576;DHT22;33304;52.456;13.328;2023-02-18T14:48:10;10.20;99.90
47576;DHT22;33304;52.456;13.328;2023-02-18T14:50:42;10.20;99.90
47576;DHT22;33304;52.456;13.328;2023-02-18T14:53:12;10.10;99.90
47576;DHT22;33304;52.456;13.328;2023-02-18T14:55:46;10.10;99.90
47576;DHT22;33304;52.456;13.328;2023-02-18T14:58:25;10.10;99.90
47576;DHT22;33304;52.456;13.328;2023-02-18T15:00:52;10.10;99.90
47576;DHT22;33304;52.456;13.328;2023-02-18T15:03:20;10.10;99.90
47576;DHT22;33304;52.456;13.328;2023-02-18T15:05:48;10.10;99.90
47576;DHT22;33304;52.456;13.328;2023-02-18T15:08:18;10.10;99.90
47576;DHT22;33304;52.456;13.328;2023-02-18T15:10:48;10.10;99.90
47576;DHT22;33304;52.456;13.328;2023-02-18T15:13:19;10.10;99.90
47576;DHT22;33304;52.456;13.328;2023-02-18T15:15:50;10.10;99.90
47576;DHT22;33304;52.456;13.328;2023-02-18T15:18:26;10.10;99.90
47576;DHT22;33304;52.456;13.328;2023-02-18T15:20:54;10.10;99.90
47576;DHT22;33304;52.456;13.328;2023-02-18T15:23:21;10.10;99.90
47576;DHT22;33304;52.456;13.328;2023-02-18T15:25:51;10.10;99.90
47576;DHT22;33304;52.456;13.328;2023-02-18T15:28:24;10.10;99.90
47576;DHT22;33304;52.456;13.328;2023-02-18T15:30:51;10.10;99.90
47576;DHT22;33304;52.456;13.328;2023-02-18T15:33:21;10.20;99.90
47576;DHT22;33304;52.456;13.328;2023-02-18T15:35:48;10.20;99.90
47576;DHT22;33304;52.456;13.328;2023-02-18T15:38:17;10.20;99.90
47576;DHT22;33304;52.456;13.328;2023-02-18T15:40:47;10.20;99.90
47576;DHT22;33304;52.456;13.328;2023-02-18T15:43:19;10.10;99.90
47576;DHT22;33304;52.456;13.328;2023-02-18T15:45:47;10.10;99.90
47576;DHT22;33304;52.456;13.328;2023-02-18T15:48:23;10.10;99.90
47576;DHT22;33304;52.456;13.328;2023-02-18T15:50:55;10.00;99.90
47576;DHT22;33304;52.456;13.328;2023-02-18T15:53:24;10.00;99.90
47576;DHT22;33304;52.456;13.328;2023-02-18T15:55:54;10.00;99.90
47576;DHT22;33304;52.456;13.328;2023-02-18T15:58:25;9.90;99.90
47576;DHT22;33304;52.456;13.328;2023-02-18T16:00:55;9.90;99.90
47576;DHT22;33304;52.456;13.328;2023-02-18T16:03:24;9.90;99.90
47576;DHT22;33304;52.456;13.328;2023-02-18T16:06:09;9.90;99.90